Hutchinson County Airport - Borger, Texas, United States - FAA: BGD - ICAO: KBGD - IATA: BGD

 
  Longest Runway: 6,300 feet   Approach Types:    Customs Landing Rights Airport: No   Port of Entry: No

Local Forecast

Today (7/31): Partly sunny, with a high near 81. East northeast wind 5 to 10 mph.

Tonight (7/31): Mostly cloudy, with a low around 63. East northeast wind 5 to 10 mph becoming south southwest after midnight.

Friday (8/1): Partly sunny, with a high near 85. West southwest wind around 5 mph becoming east northeast in the afternoon.

Friday Night (8/1): Mostly cloudy, with a low around 64. East wind around 5 mph becoming southwest after midnight.

Saturday (8/2): Mostly sunny, with a high near 84. Calm wind becoming northwest around 5 mph in the morning.

Saturday Night (8/2): Partly cloudy, with a low around 64. East wind around 5 mph becoming south after midnight.

Sunday (8/3): Mostly sunny, with a high near 87. South wind 5 to 10 mph.



Current Weather (METAR)

2014/07/31 08:51 KBGD 310851Z AUTO 35003KT 10SM CLR 16/14 A3022 RMK AO2 SLP201 T01610144 55004

BORGER HUTCHINSON CO AIRPORT , TX, United States (KBGD) 35-42N 101-24W 927M Jul 31, 2014 - 04:51 AM EDT / 2014.07.31 0851 UTC Wind: from the N (350 degrees) at 3 MPH (3 KT):0 Visibility: 10 mile(s):0 Sky conditions: clear Temperature: 61.0 F (16.1 C) Dew Point: 57.9 F (14.4 C) Relative Humidity: 89% Pressure (altimeter): 30.22 in. Hg (1023 hPa) Pressure tendency: 0.01 inches (0.4 hPa) lower than three hours ago ob: KBGD 310851Z AUTO 35003KT 10SM CLR 16/14 A3022 RMK AO2 SLP201 T01610144 55004 cycle: 9

Terminal Forecast (TAF)